createdAt,value
2023-01-07T00:02:03.059Z,10.48
2023-01-07T00:05:04.656Z,10.43
2023-01-07T00:08:06.058Z,10.45
2023-01-07T00:11:10.010Z,10.45
2023-01-07T00:14:13.443Z,10.43
2023-01-07T00:17:14.848Z,10.45
2023-01-07T00:20:16.334Z,10.44
2023-01-07T00:23:17.828Z,10.43
2023-01-07T00:26:21.684Z,10.43
2023-01-07T00:29:23.086Z,10.42
2023-01-07T00:32:44.548Z,10.40
2023-01-07T00:35:46.009Z,10.39
2023-01-07T00:38:47.912Z,10.43
2023-01-07T00:42:07.922Z,10.54
2023-01-07T00:45:10.199Z,10.53
2023-01-07T00:48:11.638Z,10.54
2023-01-07T00:51:14.872Z,10.44
2023-01-07T00:54:16.364Z,10.40
2023-01-07T00:57:17.861Z,10.39
2023-01-07T01:00:20.956Z,10.38
2023-01-07T01:03:22.894Z,10.37
2023-01-07T01:06:24.383Z,10.44
2023-01-07T01:09:26.335Z,10.47
2023-01-07T01:12:28.160Z,10.43
2023-01-07T01:15:30.780Z,10.42
2023-01-07T01:18:32.169Z,10.45
2023-01-07T01:21:33.584Z,10.38
2023-01-07T01:24:34.965Z,10.38
2023-01-07T01:27:36.673Z,10.41
2023-01-07T01:30:38.064Z,10.39
2023-01-07T01:33:39.713Z,10.33
2023-01-07T01:36:41.387Z,10.28
2023-01-07T01:39:43.096Z,10.32
2023-01-07T01:42:44.520Z,10.29
2023-01-07T01:45:50.293Z,10.28
2023-01-07T01:48:59.600Z,10.23
2023-01-07T01:52:07.103Z,10.24
2023-01-07T01:55:10.087Z,10.29
2023-01-07T01:58:17.621Z,10.34
2023-01-07T02:01:20.033Z,10.26
2023-01-07T02:04:24.393Z,10.34
2023-01-07T02:07:25.827Z,10.29
2023-01-07T02:10:32.963Z,10.35
2023-01-07T02:13:54.172Z,10.35
2023-01-07T02:17:23.627Z,10.26
2023-01-07T02:20:46.240Z,10.26
2023-01-07T02:24:14.552Z,10.21
2023-01-07T02:27:43.742Z,10.26
2023-01-07T02:31:15.786Z,10.21
2023-01-07T02:34:22.465Z,10.24
2023-01-07T02:37:37.492Z,10.25
2023-01-07T02:41:04.527Z,10.20
2023-01-07T02:44:16.826Z,10.18
2023-01-07T02:47:41.054Z,10.17
2023-01-07T02:50:42.593Z,10.25
2023-01-07T02:53:47.527Z,10.30
2023-01-07T02:57:18.145Z,10.22
2023-01-07T03:00:22.716Z,10.20
2023-01-07T03:03:52.223Z,10.18
2023-01-07T03:07:30.790Z,10.15
2023-01-07T03:10:44.834Z,10.21
2023-01-07T03:13:55.798Z,10.23
2023-01-07T03:17:04.178Z,10.18
2023-01-07T03:20:06.690Z,10.15
2023-01-07T03:23:11.726Z,10.14
2023-01-07T03:26:15.138Z,10.14
2023-01-07T03:29:18.235Z,10.13
2023-01-07T03:32:38.148Z,10.10
2023-01-07T03:35:42.559Z,10.15
2023-01-07T03:38:45.607Z,10.18
2023-01-07T03:42:09.005Z,10.20
2023-01-07T03:45:14.429Z,10.13
2023-01-07T03:48:16.206Z,10.14
2023-01-07T03:51:17.774Z,10.15
2023-01-07T03:54:19.727Z,10.17
2023-01-07T03:57:21.262Z,10.15
2023-01-07T04:00:23.122Z,10.24
2023-01-07T04:03:30.250Z,10.16
2023-01-07T04:06:31.853Z,10.14
2023-01-07T04:09:33.308Z,10.20
2023-01-07T04:12:35.127Z,10.15
2023-01-07T04:15:36.798Z,10.15
2023-01-07T04:18:38.509Z,10.12
2023-01-07T04:21:40.500Z,10.16
2023-01-07T04:24:42.022Z,10.17
2023-01-07T04:27:44.024Z,10.17
2023-01-07T04:30:46.126Z,10.13
2023-01-07T04:33:47.794Z,10.12
2023-01-07T04:36:49.345Z,10.17
2023-01-07T04:39:50.974Z,10.21
2023-01-07T04:42:52.755Z,10.18
2023-01-07T04:45:54.723Z,10.18
2023-01-07T04:48:56.217Z,10.15
2023-01-07T04:51:59.229Z,10.09
2023-01-07T04:55:01.214Z,10.02
2023-01-07T04:58:02.716Z,10.01
2023-01-07T05:01:06.908Z,9.98
2023-01-07T05:04:09.535Z,10.07
2023-01-07T05:07:11.503Z,10.04
2023-01-07T05:10:13.297Z,10.00
2023-01-07T05:13:16.830Z,10.10
2023-01-07T05:16:18.595Z,10.03
2023-01-07T05:19:21.765Z,9.98
2023-01-07T05:22:23.906Z,9.95
2023-01-07T05:25:25.451Z,9.92
2023-01-07T05:28:27.499Z,9.94
2023-01-07T05:31:29.033Z,9.93
2023-01-07T05:34:30.649Z,9.93
2023-01-07T05:37:32.788Z,9.92
2023-01-07T05:40:34.457Z,9.93
2023-01-07T05:43:35.913Z,9.94
2023-01-07T05:46:37.334Z,9.96
2023-01-07T05:49:38.727Z,9.94
2023-01-07T05:52:40.107Z,9.94
2023-01-07T05:55:41.614Z,9.95
2023-01-07T05:58:43.009Z,9.96
2023-01-07T06:01:44.412Z,9.98
2023-01-07T06:04:45.849Z,10.02
2023-01-07T06:07:47.264Z,10.10
2023-01-07T06:10:48.698Z,10.07
2023-01-07T06:13:50.146Z,10.02
2023-01-07T06:16:51.603Z,9.99
2023-01-07T06:19:53.182Z,10.00
2023-01-07T06:22:54.608Z,9.93
2023-01-07T06:25:56.002Z,9.92
2023-01-07T06:28:57.438Z,9.94
2023-01-07T06:31:58.838Z,10.08
2023-01-07T06:35:00.313Z,10.18
2023-01-07T06:38:01.714Z,10.12
2023-01-07T06:41:03.181Z,10.07
2023-01-07T06:44:04.661Z,10.04
2023-01-07T06:47:06.333Z,10.04
2023-01-07T06:50:08.188Z,10.09
2023-01-07T06:53:09.558Z,10.06
2023-01-07T06:56:11.000Z,10.06
2023-01-07T06:59:12.530Z,10.09
2023-01-07T07:02:26.320Z,10.10
2023-01-07T07:05:28.188Z,10.07
2023-01-07T07:08:29.763Z,10.07
2023-01-07T07:11:31.169Z,10.09
2023-01-07T07:14:32.611Z,10.13
2023-01-07T07:17:34.761Z,10.11
2023-01-07T07:20:36.150Z,10.13
2023-01-07T07:23:37.557Z,10.13
2023-01-07T07:26:39.063Z,10.08
2023-01-07T07:29:40.536Z,10.09
2023-01-07T07:32:42.600Z,10.12
2023-01-07T07:35:44.620Z,10.14
2023-01-07T07:38:45.999Z,10.13
2023-01-07T07:41:47.382Z,10.10
2023-01-07T07:44:52.040Z,10.34
2023-01-07T07:47:53.473Z,10.24
2023-01-07T07:50:54.881Z,10.23
2023-01-07T07:53:56.276Z,10.21
2023-01-07T07:56:58.352Z,10.26
2023-01-07T07:59:59.760Z,10.32
2023-01-07T08:03:01.422Z,10.29
2023-01-07T08:06:06.874Z,10.32
2023-01-07T08:09:08.558Z,10.34
2023-01-07T08:12:09.963Z,10.40
2023-01-07T08:15:11.608Z,10.43
2023-01-07T08:18:13.201Z,10.41
2023-01-07T08:21:14.681Z,10.56
2023-01-07T08:24:16.155Z,10.53
2023-01-07T08:27:17.526Z,10.55
2023-01-07T08:30:18.974Z,10.60
2023-01-07T08:33:20.426Z,10.67
2023-01-07T08:36:23.387Z,10.65
2023-01-07T08:39:25.051Z,10.54
2023-01-07T08:42:26.858Z,10.63
2023-01-07T08:45:28.815Z,10.64
2023-01-07T08:48:30.230Z,10.65
2023-01-07T08:51:31.665Z,10.61
2023-01-07T08:54:33.161Z,10.61
2023-01-07T08:57:34.707Z,10.58
2023-01-07T09:00:36.187Z,10.67
2023-01-07T09:03:38.170Z,10.78
2023-01-07T09:06:39.732Z,10.77
2023-01-07T09:09:42.910Z,10.80
2023-01-07T09:12:44.291Z,10.80
2023-01-07T09:15:45.715Z,10.73
2023-01-07T09:18:47.096Z,10.76
2023-01-07T09:21:48.470Z,10.86
2023-01-07T09:24:49.860Z,10.83
2023-01-07T09:27:51.264Z,10.87
2023-01-07T09:30:52.685Z,10.84
2023-01-07T09:33:54.304Z,10.91
2023-01-07T09:36:55.732Z,10.97
2023-01-07T09:39:57.340Z,11.06
2023-01-07T09:43:16.466Z,11.07
2023-01-07T09:46:18.698Z,11.18
2023-01-07T09:49:29.837Z,11.12
2023-01-07T09:52:37.424Z,11.16
2023-01-07T09:56:10.003Z,11.30
2023-01-07T09:59:04.520Z,11.29
2023-01-07T10:02:15.084Z,11.32
2023-01-07T10:05:43.446Z,11.34
2023-01-07T10:09:04.155Z,11.42
2023-01-07T10:12:33.624Z,11.37
2023-01-07T10:15:59.899Z,11.52
2023-01-07T10:19:23.729Z,11.42
2023-01-07T10:22:40.050Z,11.45
2023-01-07T10:25:48.134Z,11.56
2023-01-07T10:28:57.691Z,11.55
2023-01-07T10:32:08.095Z,11.52
2023-01-07T10:35:14.746Z,11.56
2023-01-07T10:38:19.835Z,11.53
2023-01-07T10:41:41.927Z,11.38
2023-01-07T10:44:52.421Z,11.56
2023-01-07T10:47:56.884Z,11.46
2023-01-07T10:51:24.366Z,11.46
2023-01-07T10:54:48.728Z,11.68
2023-01-07T10:57:50.160Z,11.59
2023-01-07T11:00:51.842Z,11.64
2023-01-07T11:03:55.952Z,11.72
2023-01-07T11:07:06.735Z,11.77
2023-01-07T11:10:14.998Z,11.85
2023-01-07T11:13:21.123Z,11.91
2023-01-07T11:16:29.243Z,11.96
2023-01-07T11:19:45.739Z,11.97
2023-01-07T11:22:47.248Z,12.05
2023-01-07T11:25:49.205Z,12.00
2023-01-07T11:28:53.667Z,12.02
2023-01-07T11:31:57.184Z,12.06
2023-01-07T11:35:22.588Z,12.05
2023-01-07T11:38:29.381Z,12.05
2023-01-07T11:41:30.902Z,12.02
2023-01-07T11:44:32.466Z,12.12
2023-01-07T11:47:34.227Z,12.12
2023-01-07T11:50:38.684Z,12.09
2023-01-07T11:53:51.094Z,12.11
2023-01-07T11:56:55.153Z,12.20
2023-01-07T12:00:17.209Z,12.28
2023-01-07T12:03:18.965Z,12.38
2023-01-07T12:06:33.995Z,12.41
2023-01-07T12:09:38.676Z,12.41
2023-01-07T12:12:43.870Z,12.45
2023-01-07T12:16:01.899Z,12.50
2023-01-07T12:19:53.112Z,12.52
2023-01-07T12:23:23.394Z,12.73
2023-01-07T12:26:32.337Z,13.10
2023-01-07T12:29:57.646Z,13.34
2023-01-07T12:33:28.897Z,13.44
2023-01-07T12:36:40.110Z,13.46
2023-01-07T12:39:45.347Z,13.51
2023-01-07T12:42:59.275Z,13.91
2023-01-07T12:46:04.281Z,13.92
2023-01-07T12:49:13.535Z,13.94
2023-01-07T12:52:21.247Z,14.06
2023-01-07T12:55:28.378Z,13.98
2023-01-07T12:58:38.154Z,13.61
2023-01-07T13:01:51.002Z,13.60
2023-01-07T13:05:19.988Z,13.57
2023-01-07T13:08:43.577Z,13.56
2023-01-07T13:12:41.899Z,13.41
2023-01-07T13:15:44.477Z,13.56
2023-01-07T13:18:45.873Z,13.50
2023-01-07T13:21:49.296Z,13.55
2023-01-07T13:25:12.184Z,13.78
2023-01-07T13:28:38.981Z,14.09
2023-01-07T13:32:01.946Z,14.26
2023-01-07T13:35:25.462Z,14.45
2023-01-07T13:38:55.236Z,14.22
2023-01-07T13:42:19.747Z,14.13
2023-01-07T13:45:32.370Z,13.98
2023-01-07T13:48:34.712Z,13.73
2023-01-07T13:51:38.369Z,13.78
2023-01-07T13:54:48.574Z,13.85
2023-01-07T13:57:50.868Z,13.78
2023-01-07T14:01:12.212Z,13.80
2023-01-07T14:04:22.772Z,13.64
2023-01-07T14:07:24.352Z,13.54
2023-01-07T14:10:31.415Z,13.47
2023-01-07T14:13:42.367Z,13.48
2023-01-07T14:17:02.889Z,13.50
2023-01-07T14:20:38.571Z,13.61
2023-01-07T14:23:55.747Z,13.75
2023-01-07T14:27:18.436Z,13.62
2023-01-07T14:30:23.458Z,13.56
2023-01-07T14:33:27.118Z,13.48
2023-01-07T14:37:09.756Z,13.37
2023-01-07T14:40:26.489Z,13.24
2023-01-07T14:43:46.093Z,13.17
2023-01-07T14:46:48.920Z,13.20
2023-01-07T14:50:05.585Z,13.10
2023-01-07T14:53:29.124Z,12.97
2023-01-07T14:56:39.321Z,12.99
2023-01-07T15:00:02.728Z,12.93
2023-01-07T15:03:22.970Z,12.71
2023-01-07T15:06:33.957Z,12.68
2023-01-07T15:10:09.790Z,12.55
2023-01-07T15:13:39.996Z,12.34
2023-01-07T15:16:43.499Z,12.26
2023-01-07T15:19:45.380Z,12.14
2023-01-07T15:23:34.408Z,12.14
2023-01-07T15:27:07.251Z,12.22
2023-01-07T15:30:20.377Z,12.12
2023-01-07T15:33:50.676Z,12.16
2023-01-07T15:36:52.517Z,12.12
2023-01-07T15:39:57.779Z,12.11
2023-01-07T15:42:59.425Z,12.08
2023-01-07T15:46:04.637Z,11.97
2023-01-07T15:49:09.032Z,11.90
2023-01-07T15:52:27.529Z,11.84
2023-01-07T15:55:50.090Z,11.82
2023-01-07T15:58:51.825Z,11.74
2023-01-07T16:01:59.989Z,11.65
2023-01-07T16:05:04.963Z,11.69
2023-01-07T16:08:14.863Z,11.61
2023-01-07T16:11:25.813Z,11.55
2023-01-07T16:14:28.072Z,11.47
2023-01-07T16:17:29.605Z,11.41
2023-01-07T16:20:36.015Z,11.39
2023-01-07T16:23:39.318Z,11.33
2023-01-07T16:26:49.282Z,11.30
2023-01-07T16:29:54.679Z,11.14
2023-01-07T16:32:56.716Z,11.10
2023-01-07T16:36:01.850Z,11.06
2023-01-07T16:39:12.188Z,11.07
2023-01-07T16:42:20.060Z,11.02
2023-01-07T16:45:25.141Z,10.84
2023-01-07T16:48:26.647Z,10.86
2023-01-07T16:51:37.212Z,10.93
2023-01-07T16:54:41.208Z,10.85
2023-01-07T16:57:44.956Z,10.71
2023-01-07T17:00:51.953Z,10.64
2023-01-07T17:03:58.219Z,10.55
2023-01-07T17:07:01.328Z,10.56
2023-01-07T17:10:03.107Z,10.50
2023-01-07T17:13:36.244Z,10.54
2023-01-07T17:16:38.505Z,10.50
2023-01-07T17:19:41.860Z,10.44
2023-01-07T17:22:43.540Z,10.32
2023-01-07T17:25:45.144Z,10.40
2023-01-07T17:28:50.436Z,10.35
2023-01-07T17:31:51.968Z,10.24
2023-01-07T17:34:53.502Z,10.17
2023-01-07T17:37:56.606Z,10.23
2023-01-07T17:40:58.067Z,10.24
2023-01-07T17:43:59.491Z,10.28
2023-01-07T17:47:00.939Z,10.15
2023-01-07T17:50:02.376Z,10.29
2023-01-07T17:53:04.663Z,10.14
2023-01-07T17:56:06.388Z,10.13
2023-01-07T17:59:14.795Z,10.08
2023-01-07T18:02:23.188Z,10.12
2023-01-07T18:05:26.239Z,10.11
2023-01-07T18:08:27.831Z,10.01
2023-01-07T18:11:48.204Z,10.12
2023-01-07T18:14:49.650Z,9.90
2023-01-07T18:17:51.807Z,9.86
2023-01-07T18:20:54.094Z,9.78
2023-01-07T18:23:55.536Z,9.82
2023-01-07T18:26:56.934Z,9.73
2023-01-07T18:29:58.362Z,9.75
2023-01-07T18:32:59.750Z,9.73
2023-01-07T18:36:01.535Z,9.82
2023-01-07T18:39:04.080Z,9.78
2023-01-07T18:42:05.768Z,9.77
2023-01-07T18:45:07.721Z,9.70
2023-01-07T18:48:10.316Z,9.73
2023-01-07T18:51:12.027Z,9.68
2023-01-07T18:54:14.231Z,9.62
2023-01-07T18:57:15.791Z,9.60
2023-01-07T19:00:17.428Z,9.53
2023-01-07T19:03:18.883Z,9.59
2023-01-07T19:06:20.259Z,9.40
2023-01-07T19:09:22.992Z,9.45
2023-01-07T19:12:24.396Z,9.35
2023-01-07T19:15:25.802Z,9.42
2023-01-07T19:18:28.131Z,9.38
2023-01-07T19:21:29.915Z,9.41
2023-01-07T19:24:31.403Z,9.29
2023-01-07T19:27:32.903Z,9.31
2023-01-07T19:30:34.377Z,9.31
2023-01-07T19:33:36.557Z,9.27
2023-01-07T19:36:38.196Z,9.17
2023-01-07T19:39:40.468Z,9.15
2023-01-07T19:42:41.906Z,9.14
2023-01-07T19:45:52.873Z,9.13
2023-01-07T19:48:54.298Z,9.16
2023-01-07T19:51:56.045Z,9.12
2023-01-07T19:54:57.636Z,9.13
2023-01-07T19:57:59.063Z,9.16
2023-01-07T20:01:04.377Z,9.19
2023-01-07T20:04:07.917Z,9.17
2023-01-07T20:07:09.344Z,9.14
2023-01-07T20:10:11.641Z,9.15
2023-01-07T20:13:13.032Z,9.14
2023-01-07T20:16:21.785Z,9.13
2023-01-07T20:19:23.366Z,9.16
2023-01-07T20:22:24.769Z,9.18
2023-01-07T20:25:26.238Z,9.21
2023-01-07T20:28:28.947Z,9.20
2023-01-07T20:31:31.213Z,9.22
2023-01-07T20:34:32.790Z,9.28
2023-01-07T20:37:34.570Z,9.31
2023-01-07T20:40:39.928Z,9.30
2023-01-07T20:43:41.511Z,9.25
2023-01-07T20:46:42.929Z,9.19
2023-01-07T20:49:44.863Z,9.18
2023-01-07T20:52:46.240Z,9.05
2023-01-07T20:55:51.363Z,9.03
2023-01-07T20:58:52.819Z,9.05
2023-01-07T21:01:54.357Z,8.99
2023-01-07T21:04:56.093Z,8.97
2023-01-07T21:07:59.150Z,8.90
2023-01-07T21:11:00.681Z,8.83
2023-01-07T21:14:02.112Z,8.85
2023-01-07T21:17:03.620Z,8.88
2023-01-07T21:20:06.259Z,8.86
2023-01-07T21:23:07.842Z,8.79
2023-01-07T21:26:10.102Z,8.99
2023-01-07T21:29:11.533Z,8.99
2023-01-07T21:32:13.962Z,9.10
2023-01-07T21:35:15.479Z,9.07
2023-01-07T21:38:16.857Z,9.15
2023-01-07T21:41:18.423Z,8.96
2023-01-07T21:44:19.801Z,8.88
2023-01-07T21:47:21.211Z,8.84
2023-01-07T21:50:22.606Z,8.74
2023-01-07T21:53:23.990Z,8.79
2023-01-07T21:56:32.505Z,8.69
2023-01-07T21:59:33.924Z,8.79
2023-01-07T22:02:35.309Z,8.76
2023-01-07T22:05:36.868Z,8.76
2023-01-07T22:08:38.235Z,8.60
2023-01-07T22:11:41.389Z,8.51
2023-01-07T22:14:42.772Z,8.61
2023-01-07T22:17:44.140Z,8.65
2023-01-07T22:20:52.466Z,8.76
2023-01-07T22:23:53.875Z,8.79
2023-01-07T22:26:55.435Z,8.78
2023-01-07T22:29:57.592Z,8.74
2023-01-07T22:32:59.011Z,8.78
2023-01-07T22:36:00.468Z,8.77
2023-01-07T22:39:04.595Z,8.89
2023-01-07T22:42:13.849Z,8.83
2023-01-07T22:45:21.079Z,8.84
2023-01-07T22:48:27.099Z,8.83
2023-01-07T22:51:36.917Z,8.87
2023-01-07T22:54:39.834Z,8.87
2023-01-07T22:57:41.879Z,8.91
2023-01-07T23:00:46.197Z,8.91
2023-01-07T23:03:47.867Z,8.95
2023-01-07T23:06:49.416Z,8.84
2023-01-07T23:09:51.721Z,8.79
2023-01-07T23:12:53.218Z,8.87
2023-01-07T23:15:54.769Z,8.85
2023-01-07T23:18:56.171Z,8.78
2023-01-07T23:21:57.601Z,8.86
2023-01-07T23:24:59.004Z,8.86
2023-01-07T23:28:00.404Z,8.90
2023-01-07T23:31:02.008Z,8.87
2023-01-07T23:34:04.319Z,8.86
2023-01-07T23:37:05.801Z,8.78
2023-01-07T23:40:08.773Z,8.85
2023-01-07T23:43:10.354Z,8.84
2023-01-07T23:46:11.877Z,8.83
2023-01-07T23:49:13.307Z,8.83
2023-01-07T23:52:15.005Z,8.83
2023-01-07T23:55:16.437Z,9.00
2023-01-07T23:58:18.112Z,9.09
